sensor_id;sensor_type;location;lat;lon;timestamp;P1;durP1;ratioP1;P2;durP2;ratioP2
37559;SDS011;23398;50.928;7.084;2023-06-22T00:00:44;4.45;;;3.90;;
37559;SDS011;23398;50.928;7.084;2023-06-22T00:03:10;5.20;;;4.03;;
37559;SDS011;23398;50.928;7.084;2023-06-22T00:05:36;4.72;;;4.20;;
37559;SDS011;23398;50.928;7.084;2023-06-22T00:08:04;4.18;;;3.78;;
37559;SDS011;23398;50.928;7.084;2023-06-22T00:10:30;3.67;;;3.38;;
37559;SDS011;23398;50.928;7.084;2023-06-22T00:12:56;4.15;;;3.75;;
37559;SDS011;23398;50.928;7.084;2023-06-22T00:15:21;5.07;;;4.00;;
37559;SDS011;23398;50.928;7.084;2023-06-22T00:17:47;4.20;;;3.70;;
37559;SDS011;23398;50.928;7.084;2023-06-22T00:20:13;4.20;;;3.80;;
37559;SDS011;23398;50.928;7.084;2023-06-22T00:22:39;4.40;;;4.00;;
37559;SDS011;23398;50.928;7.084;2023-06-22T00:25:06;4.85;;;3.90;;
37559;SDS011;23398;50.928;7.084;2023-06-22T00:27:32;4.63;;;3.55;;
37559;SDS011;23398;50.928;7.084;2023-06-22T00:29:57;4.03;;;3.63;;
37559;SDS011;23398;50.928;7.084;2023-06-22T00:32:23;4.30;;;3.50;;
37559;SDS011;23398;50.928;7.084;2023-06-22T00:34:49;4.35;;;3.95;;
37559;SDS011;23398;50.928;7.084;2023-06-22T00:37:15;3.80;;;3.50;;
37559;SDS011;23398;50.928;7.084;2023-06-22T00:39:41;4.38;;;3.42;;
37559;SDS011;23398;50.928;7.084;2023-06-22T00:42:10;3.85;;;3.45;;
37559;SDS011;23398;50.928;7.084;2023-06-22T00:44:35;4.15;;;3.80;;
37559;SDS011;23398;50.928;7.084;2023-06-22T00:47:01;3.63;;;3.33;;
37559;SDS011;23398;50.928;7.084;2023-06-22T00:49:28;5.03;;;3.95;;
37559;SDS011;23398;50.928;7.084;2023-06-22T00:51:53;4.30;;;3.90;;
37559;SDS011;23398;50.928;7.084;2023-06-22T00:54:20;4.30;;;3.88;;
37559;SDS011;23398;50.928;7.084;2023-06-22T00:56:55;4.70;;;3.60;;
37559;SDS011;23398;50.928;7.084;2023-06-22T00:59:22;4.72;;;3.83;;
37559;SDS011;23398;50.928;7.084;2023-06-22T01:01:48;4.10;;;3.70;;
37559;SDS011;23398;50.928;7.084;2023-06-22T01:04:14;6.07;;;3.95;;
37559;SDS011;23398;50.928;7.084;2023-06-22T01:06:42;4.00;;;3.60;;
37559;SDS011;23398;50.928;7.084;2023-06-22T01:09:31;3.88;;;3.58;;
37559;SDS011;23398;50.928;7.084;2023-06-22T01:12:02;3.95;;;3.58;;
37559;SDS011;23398;50.928;7.084;2023-06-22T01:14:34;4.72;;;3.80;;
37559;SDS011;23398;50.928;7.084;2023-06-22T01:17:12;4.85;;;3.72;;
37559;SDS011;23398;50.928;7.084;2023-06-22T01:19:50;4.40;;;4.00;;
37559;SDS011;23398;50.928;7.084;2023-06-22T01:22:26;3.72;;;3.42;;
37559;SDS011;23398;50.928;7.084;2023-06-22T01:30:10;4.40;;;4.00;;
37559;SDS011;23398;50.928;7.084;2023-06-22T01:32:38;4.40;;;3.88;;
37559;SDS011;23398;50.928;7.084;2023-06-22T01:35:05;4.25;;;3.85;;
37559;SDS011;23398;50.928;7.084;2023-06-22T01:37:32;5.30;;;3.97;;
37559;SDS011;23398;50.928;7.084;2023-06-22T01:39:59;3.88;;;3.33;;
37559;SDS011;23398;50.928;7.084;2023-06-22T01:42:25;3.85;;;3.15;;
37559;SDS011;23398;50.928;7.084;2023-06-22T01:44:52;4.05;;;3.58;;
37559;SDS011;23398;50.928;7.084;2023-06-22T01:47:18;4.22;;;3.88;;
37559;SDS011;23398;50.928;7.084;2023-06-22T01:49:45;3.72;;;3.42;;
37559;SDS011;23398;50.928;7.084;2023-06-22T01:52:11;3.58;;;3.28;;
37559;SDS011;23398;50.928;7.084;2023-06-22T01:54:37;4.70;;;3.90;;
37559;SDS011;23398;50.928;7.084;2023-06-22T01:57:05;4.28;;;3.90;;
37559;SDS011;23398;50.928;7.084;2023-06-22T02:02:40;4.45;;;4.05;;
37559;SDS011;23398;50.928;7.084;2023-06-22T02:05:26;4.35;;;3.95;;
37559;SDS011;23398;50.928;7.084;2023-06-22T02:10:43;4.20;;;3.85;;
37559;SDS011;23398;50.928;7.084;2023-06-22T02:13:10;4.15;;;3.75;;
37559;SDS011;23398;50.928;7.084;2023-06-22T02:15:37;4.10;;;3.67;;
37559;SDS011;23398;50.928;7.084;2023-06-22T02:18:03;5.50;;;3.83;;
37559;SDS011;23398;50.928;7.084;2023-06-22T02:20:29;3.83;;;3.53;;
37559;SDS011;23398;50.928;7.084;2023-06-22T02:22:54;4.22;;;3.83;;
37559;SDS011;23398;50.928;7.084;2023-06-22T02:25:20;3.58;;;3.28;;
37559;SDS011;23398;50.928;7.084;2023-06-22T02:27:46;4.18;;;3.88;;
37559;SDS011;23398;50.928;7.084;2023-06-22T02:30:12;4.25;;;3.85;;
37559;SDS011;23398;50.928;7.084;2023-06-22T02:32:39;4.22;;;3.83;;
37559;SDS011;23398;50.928;7.084;2023-06-22T02:35:07;4.35;;;3.90;;
37559;SDS011;23398;50.928;7.084;2023-06-22T02:37:36;4.53;;;4.13;;
37559;SDS011;23398;50.928;7.084;2023-06-22T02:40:09;4.68;;;4.28;;
37559;SDS011;23398;50.928;7.084;2023-06-22T02:42:35;4.38;;;3.97;;
37559;SDS011;23398;50.928;7.084;2023-06-22T02:45:04;4.47;;;4.05;;
37559;SDS011;23398;50.928;7.084;2023-06-22T02:47:30;5.15;;;3.88;;
37559;SDS011;23398;50.928;7.084;2023-06-22T02:49:56;5.07;;;4.10;;
37559;SDS011;23398;50.928;7.084;2023-06-22T02:52:21;4.18;;;3.88;;
37559;SDS011;23398;50.928;7.084;2023-06-22T02:54:47;4.38;;;3.97;;
37559;SDS011;23398;50.928;7.084;2023-06-22T02:57:12;4.93;;;4.30;;
37559;SDS011;23398;50.928;7.084;2023-06-22T02:59:39;4.32;;;3.92;;
37559;SDS011;23398;50.928;7.084;2023-06-22T03:02:08;5.32;;;4.25;;
37559;SDS011;23398;50.928;7.084;2023-06-22T03:04:34;5.05;;;4.05;;
37559;SDS011;23398;50.928;7.084;2023-06-22T03:07:02;4.45;;;4.05;;
37559;SDS011;23398;50.928;7.084;2023-06-22T03:09:28;4.28;;;3.88;;
37559;SDS011;23398;50.928;7.084;2023-06-22T03:11:54;4.30;;;4.00;;
37559;SDS011;23398;50.928;7.084;2023-06-22T03:14:20;4.45;;;4.05;;
37559;SDS011;23398;50.928;7.084;2023-06-22T03:16:45;4.25;;;3.88;;
37559;SDS011;23398;50.928;7.084;2023-06-22T03:19:11;4.43;;;3.88;;
37559;SDS011;23398;50.928;7.084;2023-06-22T03:21:37;6.43;;;4.25;;
37559;SDS011;23398;50.928;7.084;2023-06-22T03:24:03;4.40;;;4.00;;
37559;SDS011;23398;50.928;7.084;2023-06-22T03:26:30;4.78;;;3.90;;
37559;SDS011;23398;50.928;7.084;2023-06-22T03:28:56;5.53;;;4.10;;
37559;SDS011;23398;50.928;7.084;2023-06-22T03:31:21;4.25;;;3.85;;
37559;SDS011;23398;50.928;7.084;2023-06-22T03:33:48;4.63;;;4.22;;
37559;SDS011;23398;50.928;7.084;2023-06-22T03:36:14;4.40;;;4.00;;
37559;SDS011;23398;50.928;7.084;2023-06-22T03:38:44;4.53;;;4.13;;
37559;SDS011;23398;50.928;7.084;2023-06-22T03:41:10;4.30;;;3.90;;
37559;SDS011;23398;50.928;7.084;2023-06-22T03:43:36;4.32;;;3.90;;
37559;SDS011;23398;50.928;7.084;2023-06-22T03:46:01;5.97;;;4.60;;
37559;SDS011;23398;50.928;7.084;2023-06-22T03:48:27;4.88;;;4.05;;
37559;SDS011;23398;50.928;7.084;2023-06-22T03:50:53;4.57;;;4.18;;
37559;SDS011;23398;50.928;7.084;2023-06-22T03:53:18;4.93;;;4.53;;
37559;SDS011;23398;50.928;7.084;2023-06-22T03:55:47;4.75;;;4.35;;
37559;SDS011;23398;50.928;7.084;2023-06-22T03:58:15;5.53;;;4.32;;
37559;SDS011;23398;50.928;7.084;2023-06-22T04:00:41;4.70;;;4.28;;
37559;SDS011;23398;50.928;7.084;2023-06-22T04:03:06;4.63;;;4.10;;
37559;SDS011;23398;50.928;7.084;2023-06-22T04:05:32;4.90;;;4.43;;
37559;SDS011;23398;50.928;7.084;2023-06-22T04:07:58;4.75;;;4.35;;
37559;SDS011;23398;50.928;7.084;2023-06-22T04:10:23;4.70;;;4.30;;
37559;SDS011;23398;50.928;7.084;2023-06-22T04:12:49;4.80;;;4.40;;
37559;SDS011;23398;50.928;7.084;2023-06-22T04:15:14;5.00;;;4.60;;
37559;SDS011;23398;50.928;7.084;2023-06-22T04:17:40;4.75;;;4.35;;
37559;SDS011;23398;50.928;7.084;2023-06-22T04:20:06;4.68;;;4.28;;
37559;SDS011;23398;50.928;7.084;2023-06-22T04:22:32;5.32;;;4.82;;
37559;SDS011;23398;50.928;7.084;2023-06-22T04:24:58;5.18;;;4.68;;
37559;SDS011;23398;50.928;7.084;2023-06-22T04:27:23;5.05;;;4.55;;
37559;SDS011;23398;50.928;7.084;2023-06-22T04:29:49;4.80;;;4.40;;
37559;SDS011;23398;50.928;7.084;2023-06-22T04:32:16;5.45;;;4.70;;
37559;SDS011;23398;50.928;7.084;2023-06-22T04:34:42;4.80;;;4.40;;
37559;SDS011;23398;50.928;7.084;2023-06-22T04:37:08;6.97;;;4.40;;
37559;SDS011;23398;50.928;7.084;2023-06-22T04:39:34;4.82;;;4.45;;
37559;SDS011;23398;50.928;7.084;2023-06-22T04:41:59;5.32;;;4.82;;
37559;SDS011;23398;50.928;7.084;2023-06-22T04:44:26;5.68;;;5.18;;
37559;SDS011;23398;50.928;7.084;2023-06-22T04:46:56;4.68;;;4.28;;
37559;SDS011;23398;50.928;7.084;2023-06-22T04:49:27;5.45;;;4.35;;
37559;SDS011;23398;50.928;7.084;2023-06-22T04:51:57;5.40;;;4.90;;
37559;SDS011;23398;50.928;7.084;2023-06-22T04:54:27;6.97;;;6.28;;
37559;SDS011;23398;50.928;7.084;2023-06-22T04:56:52;7.95;;;6.80;;
37559;SDS011;23398;50.928;7.084;2023-06-22T04:59:22;6.30;;;5.70;;
37559;SDS011;23398;50.928;7.084;2023-06-22T05:01:55;5.82;;;5.32;;
37559;SDS011;23398;50.928;7.084;2023-06-22T05:04:21;5.18;;;4.78;;
37559;SDS011;23398;50.928;7.084;2023-06-22T05:06:50;4.55;;;4.15;;
37559;SDS011;23398;50.928;7.084;2023-06-22T05:09:16;6.20;;;5.57;;
37559;SDS011;23398;50.928;7.084;2023-06-22T05:11:43;6.55;;;5.93;;
37559;SDS011;23398;50.928;7.084;2023-06-22T05:14:09;8.43;;;6.07;;
37559;SDS011;23398;50.928;7.084;2023-06-22T05:16:36;6.13;;;5.53;;
37559;SDS011;23398;50.928;7.084;2023-06-22T05:19:02;6.28;;;5.78;;
37559;SDS011;23398;50.928;7.084;2023-06-22T05:21:28;7.40;;;5.80;;
37559;SDS011;23398;50.928;7.084;2023-06-22T05:23:55;8.23;;;7.43;;
37559;SDS011;23398;50.928;7.084;2023-06-22T05:26:24;7.47;;;6.78;;
37559;SDS011;23398;50.928;7.084;2023-06-22T05:28:54;6.35;;;5.75;;
37559;SDS011;23398;50.928;7.084;2023-06-22T05:31:19;7.55;;;6.85;;
37559;SDS011;23398;50.928;7.084;2023-06-22T05:33:46;6.20;;;5.55;;
37559;SDS011;23398;50.928;7.084;2023-06-22T05:36:12;5.90;;;5.40;;
37559;SDS011;23398;50.928;7.084;2023-06-22T05:38:38;5.72;;;5.22;;
37559;SDS011;23398;50.928;7.084;2023-06-22T05:41:04;6.07;;;5.50;;
37559;SDS011;23398;50.928;7.084;2023-06-22T05:43:30;5.45;;;4.95;;
37559;SDS011;23398;50.928;7.084;2023-06-22T05:45:56;5.75;;;5.25;;
37559;SDS011;23398;50.928;7.084;2023-06-22T05:48:22;5.72;;;5.22;;
37559;SDS011;23398;50.928;7.084;2023-06-22T05:50:48;6.20;;;5.60;;
37559;SDS011;23398;50.928;7.084;2023-06-22T05:53:13;5.60;;;5.07;;
37559;SDS011;23398;50.928;7.084;2023-06-22T05:55:39;5.93;;;5.43;;
37559;SDS011;23398;50.928;7.084;2023-06-22T05:58:05;5.18;;;4.78;;
37559;SDS011;23398;50.928;7.084;2023-06-22T06:00:31;5.38;;;4.97;;
37559;SDS011;23398;50.928;7.084;2023-06-22T06:02:57;6.53;;;5.25;;
37559;SDS011;23398;50.928;7.084;2023-06-22T06:05:28;5.93;;;5.43;;
37559;SDS011;23398;50.928;7.084;2023-06-22T06:07:55;5.90;;;5.32;;
37559;SDS011;23398;50.928;7.084;2023-06-22T06:10:20;6.03;;;4.97;;
37559;SDS011;23398;50.928;7.084;2023-06-22T06:12:46;5.40;;;4.97;;
37559;SDS011;23398;50.928;7.084;2023-06-22T06:15:11;5.03;;;4.60;;
37559;SDS011;23398;50.928;7.084;2023-06-22T06:17:44;5.45;;;4.95;;
37559;SDS011;23398;50.928;7.084;2023-06-22T06:20:11;5.10;;;4.70;;
37559;SDS011;23398;50.928;7.084;2023-06-22T06:22:37;5.65;;;5.07;;
37559;SDS011;23398;50.928;7.084;2023-06-22T06:25:02;5.53;;;5.03;;
37559;SDS011;23398;50.928;7.084;2023-06-22T06:27:29;6.55;;;4.90;;
37559;SDS011;23398;50.928;7.084;2023-06-22T06:29:56;5.10;;;4.60;;
37559;SDS011;23398;50.928;7.084;2023-06-22T06:32:21;5.10;;;4.70;;
37559;SDS011;23398;50.928;7.084;2023-06-22T06:34:47;5.65;;;4.75;;
37559;SDS011;23398;50.928;7.084;2023-06-22T06:37:12;5.43;;;4.93;;
37559;SDS011;23398;50.928;7.084;2023-06-22T06:39:38;4.85;;;4.45;;
37559;SDS011;23398;50.928;7.084;2023-06-22T06:42:04;6.07;;;5.53;;
37559;SDS011;23398;50.928;7.084;2023-06-22T06:44:30;6.55;;;5.95;;
37559;SDS011;23398;50.928;7.084;2023-06-22T06:46:55;6.00;;;5.50;;
37559;SDS011;23398;50.928;7.084;2023-06-22T06:49:21;5.22;;;4.82;;
37559;SDS011;23398;50.928;7.084;2023-06-22T06:51:47;5.22;;;4.78;;
37559;SDS011;23398;50.928;7.084;2023-06-22T06:54:13;4.97;;;4.57;;
37559;SDS011;23398;50.928;7.084;2023-06-22T06:56:38;4.93;;;4.53;;
37559;SDS011;23398;50.928;7.084;2023-06-22T06:59:04;4.80;;;4.40;;
37559;SDS011;23398;50.928;7.084;2023-06-22T07:01:30;5.10;;;4.68;;
37559;SDS011;23398;50.928;7.084;2023-06-22T07:03:58;4.78;;;4.38;;
37559;SDS011;23398;50.928;7.084;2023-06-22T07:06:25;5.28;;;4.78;;
37559;SDS011;23398;50.928;7.084;2023-06-22T07:08:54;4.80;;;4.40;;
37559;SDS011;23398;50.928;7.084;2023-06-22T07:11:20;4.95;;;4.53;;
37559;SDS011;23398;50.928;7.084;2023-06-22T07:13:46;4.45;;;4.15;;
37559;SDS011;23398;50.928;7.084;2023-06-22T07:16:11;4.95;;;4.07;;
37559;SDS011;23398;50.928;7.084;2023-06-22T07:18:39;4.13;;;3.83;;
37559;SDS011;23398;50.928;7.084;2023-06-22T07:21:04;4.43;;;4.03;;
37559;SDS011;23398;50.928;7.084;2023-06-22T07:23:31;4.38;;;3.97;;
37559;SDS011;23398;50.928;7.084;2023-06-22T07:25:57;4.47;;;4.07;;
37559;SDS011;23398;50.928;7.084;2023-06-22T07:28:26;4.00;;;3.60;;
37559;SDS011;23398;50.928;7.084;2023-06-22T07:30:56;4.53;;;4.13;;
37559;SDS011;23398;50.928;7.084;2023-06-22T07:33:22;4.80;;;4.25;;
37559;SDS011;23398;50.928;7.084;2023-06-22T07:35:47;4.15;;;3.85;;
37559;SDS011;23398;50.928;7.084;2023-06-22T07:38:13;4.22;;;3.90;;
37559;SDS011;23398;50.928;7.084;2023-06-22T07:40:40;4.35;;;4.03;;
37559;SDS011;23398;50.928;7.084;2023-06-22T07:43:06;4.05;;;3.75;;
37559;SDS011;23398;50.928;7.084;2023-06-22T07:45:32;4.07;;;3.67;;
37559;SDS011;23398;50.928;7.084;2023-06-22T07:47:59;4.20;;;3.80;;
37559;SDS011;23398;50.928;7.084;2023-06-22T07:50:25;4.25;;;3.53;;
37559;SDS011;23398;50.928;7.084;2023-06-22T07:52:51;4.30;;;3.90;;
37559;SDS011;23398;50.928;7.084;2023-06-22T07:55:17;3.85;;;3.55;;
37559;SDS011;23398;50.928;7.084;2023-06-22T07:57:43;4.22;;;3.83;;
37559;SDS011;23398;50.928;7.084;2023-06-22T08:00:09;3.80;;;3.50;;
37559;SDS011;23398;50.928;7.084;2023-06-22T08:02:40;4.10;;;3.80;;
37559;SDS011;23398;50.928;7.084;2023-06-22T08:05:10;4.47;;;4.07;;
37559;SDS011;23398;50.928;7.084;2023-06-22T08:07:36;5.82;;;3.92;;
37559;SDS011;23398;50.928;7.084;2023-06-22T08:10:03;3.85;;;3.55;;
37559;SDS011;23398;50.928;7.084;2023-06-22T08:12:30;3.70;;;3.40;;
37559;SDS011;23398;50.928;7.084;2023-06-22T08:14:55;4.10;;;3.80;;
37559;SDS011;23398;50.928;7.084;2023-06-22T08:17:22;4.10;;;3.80;;
37559;SDS011;23398;50.928;7.084;2023-06-22T08:19:48;4.03;;;3.67;;
37559;SDS011;23398;50.928;7.084;2023-06-22T08:22:14;4.00;;;3.70;;
37559;SDS011;23398;50.928;7.084;2023-06-22T08:24:40;3.95;;;3.65;;
37559;SDS011;23398;50.928;7.084;2023-06-22T08:27:07;3.72;;;3.42;;
37559;SDS011;23398;50.928;7.084;2023-06-22T08:29:39;3.95;;;3.40;;
37559;SDS011;23398;50.928;7.084;2023-06-22T08:32:07;3.78;;;3.47;;
37559;SDS011;23398;50.928;7.084;2023-06-22T08:34:37;4.35;;;4.03;;
37559;SDS011;23398;50.928;7.084;2023-06-22T08:37:07;3.83;;;3.53;;
37559;SDS011;23398;50.928;7.084;2023-06-22T08:39:33;4.00;;;3.70;;
37559;SDS011;23398;50.928;7.084;2023-06-22T08:41:59;3.70;;;3.40;;
37559;SDS011;23398;50.928;7.084;2023-06-22T08:44:25;4.18;;;3.88;;
37559;SDS011;23398;50.928;7.084;2023-06-22T08:46:50;3.75;;;3.47;;
37559;SDS011;23398;50.928;7.084;2023-06-22T08:49:16;4.25;;;3.95;;
37559;SDS011;23398;50.928;7.084;2023-06-22T08:51:41;4.07;;;3.78;;
37559;SDS011;23398;50.928;7.084;2023-06-22T08:54:09;4.25;;;3.83;;
37559;SDS011;23398;50.928;7.084;2023-06-22T08:56:35;5.00;;;3.63;;
37559;SDS011;23398;50.928;7.084;2023-06-22T08:59:00;4.05;;;3.58;;
37559;SDS011;23398;50.928;7.084;2023-06-22T09:01:26;4.07;;;3.67;;
37559;SDS011;23398;50.928;7.084;2023-06-22T09:03:52;4.05;;;3.67;;
37559;SDS011;23398;50.928;7.084;2023-06-22T09:06:22;3.70;;;3.45;;
37559;SDS011;23398;50.928;7.084;2023-06-22T09:08:49;3.58;;;3.30;;
37559;SDS011;23398;50.928;7.084;2023-06-22T09:11:14;3.97;;;3.67;;
37559;SDS011;23398;50.928;7.084;2023-06-22T09:13:40;4.10;;;3.80;;
37559;SDS011;23398;50.928;7.084;2023-06-22T09:16:06;4.20;;;3.80;;
37559;SDS011;23398;50.928;7.084;2023-06-22T09:18:31;4.13;;;3.72;;
37559;SDS011;23398;50.928;7.084;2023-06-22T09:20:58;3.80;;;3.50;;
37559;SDS011;23398;50.928;7.084;2023-06-22T09:23:24;4.28;;;3.88;;
37559;SDS011;23398;50.928;7.084;2023-06-22T09:25:50;4.30;;;3.90;;
37559;SDS011;23398;50.928;7.084;2023-06-22T09:28:15;4.50;;;4.10;;
37559;SDS011;23398;50.928;7.084;2023-06-22T09:30:42;3.90;;;3.60;;
37559;SDS011;23398;50.928;7.084;2023-06-22T09:33:09;4.30;;;3.90;;
37559;SDS011;23398;50.928;7.084;2023-06-22T09:35:35;4.60;;;4.20;;
37559;SDS011;23398;50.928;7.084;2023-06-22T09:38:00;4.00;;;3.70;;
37559;SDS011;23398;50.928;7.084;2023-06-22T09:40:26;4.28;;;3.97;;
37559;SDS011;23398;50.928;7.084;2023-06-22T09:42:51;4.13;;;3.83;;
37559;SDS011;23398;50.928;7.084;2023-06-22T09:45:17;4.68;;;4.28;;
37559;SDS011;23398;50.928;7.084;2023-06-22T09:47:42;4.20;;;3.80;;
37559;SDS011;23398;50.928;7.084;2023-06-22T09:50:08;6.25;;;4.07;;
37559;SDS011;23398;50.928;7.084;2023-06-22T09:52:34;4.20;;;3.90;;
37559;SDS011;23398;50.928;7.084;2023-06-22T09:54:59;4.28;;;3.88;;
37559;SDS011;23398;50.928;7.084;2023-06-22T09:57:25;4.47;;;4.18;;
37559;SDS011;23398;50.928;7.084;2023-06-22T09:59:51;4.32;;;3.92;;
37559;SDS011;23398;50.928;7.084;2023-06-22T10:02:16;4.05;;;3.75;;
37559;SDS011;23398;50.928;7.084;2023-06-22T10:04:42;4.40;;;4.00;;
37559;SDS011;23398;50.928;7.084;2023-06-22T10:07:07;4.50;;;4.15;;
37559;SDS011;23398;50.928;7.084;2023-06-22T10:09:33;5.13;;;4.68;;
37559;SDS011;23398;50.928;7.084;2023-06-22T10:11:59;4.55;;;4.15;;
37559;SDS011;23398;50.928;7.084;2023-06-22T10:14:24;4.55;;;4.15;;
37559;SDS011;23398;50.928;7.084;2023-06-22T10:16:52;4.68;;;4.28;;
37559;SDS011;23398;50.928;7.084;2023-06-22T10:19:18;4.55;;;4.15;;
37559;SDS011;23398;50.928;7.084;2023-06-22T10:21:43;4.25;;;3.85;;
37559;SDS011;23398;50.928;7.084;2023-06-22T10:24:09;4.50;;;3.80;;
37559;SDS011;23398;50.928;7.084;2023-06-22T10:26:35;4.88;;;4.47;;
37559;SDS011;23398;50.928;7.084;2023-06-22T10:29:01;5.22;;;4.72;;
37559;SDS011;23398;50.928;7.084;2023-06-22T10:31:28;5.10;;;4.43;;
37559;SDS011;23398;50.928;7.084;2023-06-22T10:33:54;7.75;;;7.05;;
37559;SDS011;23398;50.928;7.084;2023-06-22T10:36:20;8.70;;;5.00;;
37559;SDS011;23398;50.928;7.084;2023-06-22T10:38:47;5.25;;;4.60;;
37559;SDS011;23398;50.928;7.084;2023-06-22T10:41:13;5.57;;;4.68;;
37559;SDS011;23398;50.928;7.084;2023-06-22T10:43:39;5.18;;;4.18;;
37559;SDS011;23398;50.928;7.084;2023-06-22T10:46:04;5.38;;;4.45;;
37559;SDS011;23398;50.928;7.084;2023-06-22T10:48:31;5.70;;;5.05;;
37559;SDS011;23398;50.928;7.084;2023-06-22T10:50:57;5.30;;;4.80;;
37559;SDS011;23398;50.928;7.084;2023-06-22T10:53:23;5.70;;;4.80;;
37559;SDS011;23398;50.928;7.084;2023-06-22T10:55:48;5.57;;;5.07;;
37559;SDS011;23398;50.928;7.084;2023-06-22T10:58:14;5.93;;;5.32;;
37559;SDS011;23398;50.928;7.084;2023-06-22T11:00:40;5.25;;;4.75;;
37559;SDS011;23398;50.928;7.084;2023-06-22T11:03:05;5.50;;;5.00;;
37559;SDS011;23398;50.928;7.084;2023-06-22T11:05:31;5.68;;;5.13;;
37559;SDS011;23398;50.928;7.084;2023-06-22T11:07:57;5.57;;;5.05;;
37559;SDS011;23398;50.928;7.084;2023-06-22T11:10:22;7.25;;;5.40;;
37559;SDS011;23398;50.928;7.084;2023-06-22T11:12:48;8.07;;;5.35;;
37559;SDS011;23398;50.928;7.084;2023-06-22T11:15:14;5.75;;;5.15;;
37559;SDS011;23398;50.928;7.084;2023-06-22T11:17:40;7.15;;;6.00;;
37559;SDS011;23398;50.928;7.084;2023-06-22T11:20:05;9.40;;;6.10;;
37559;SDS011;23398;50.928;7.084;2023-06-22T11:22:36;9.93;;;6.30;;
37559;SDS011;23398;50.928;7.084;2023-06-22T11:25:05;13.75;;;6.43;;
37559;SDS011;23398;50.928;7.084;2023-06-22T11:27:32;30.48;;;7.15;;
37559;SDS011;23398;50.928;7.084;2023-06-22T11:29:57;8.32;;;4.57;;
37559;SDS011;23398;50.928;7.084;2023-06-22T11:32:23;5.45;;;4.43;;
37559;SDS011;23398;50.928;7.084;2023-06-22T11:34:49;5.68;;;4.20;;
37559;SDS011;23398;50.928;7.084;2023-06-22T11:37:15;4.32;;;3.92;;
37559;SDS011;23398;50.928;7.084;2023-06-22T11:39:41;4.70;;;4.30;;
37559;SDS011;23398;50.928;7.084;2023-06-22T11:42:07;5.35;;;4.78;;
37559;SDS011;23398;50.928;7.084;2023-06-22T11:44:34;5.25;;;4.57;;
37559;SDS011;23398;50.928;7.084;2023-06-22T11:46:59;6.78;;;6.10;;
37559;SDS011;23398;50.928;7.084;2023-06-22T11:49:26;6.82;;;6.15;;
37559;SDS011;23398;50.928;7.084;2023-06-22T11:51:52;6.72;;;6.13;;
37559;SDS011;23398;50.928;7.084;2023-06-22T11:54:18;6.07;;;5.47;;
37559;SDS011;23398;50.928;7.084;2023-06-22T11:56:43;6.05;;;5.45;;
37559;SDS011;23398;50.928;7.084;2023-06-22T11:59:09;6.80;;;6.18;;
37559;SDS011;23398;50.928;7.084;2023-06-22T12:01:35;6.85;;;6.25;;
37559;SDS011;23398;50.928;7.084;2023-06-22T12:04:00;6.78;;;6.18;;
37559;SDS011;23398;50.928;7.084;2023-06-22T12:06:26;6.90;;;6.25;;
37559;SDS011;23398;50.928;7.084;2023-06-22T12:08:51;6.97;;;6.35;;
37559;SDS011;23398;50.928;7.084;2023-06-22T12:11:17;7.40;;;6.70;;
37559;SDS011;23398;50.928;7.084;2023-06-22T12:13:42;7.45;;;6.85;;
37559;SDS011;23398;50.928;7.084;2023-06-22T12:16:08;8.07;;;7.35;;
37559;SDS011;23398;50.928;7.084;2023-06-22T12:18:33;8.02;;;7.22;;
37559;SDS011;23398;50.928;7.084;2023-06-22T12:21:02;8.40;;;7.53;;
37559;SDS011;23398;50.928;7.084;2023-06-22T12:23:28;8.38;;;7.53;;
37559;SDS011;23398;50.928;7.084;2023-06-22T12:25:53;8.57;;;7.80;;
37559;SDS011;23398;50.928;7.084;2023-06-22T12:28:19;10.02;;;7.82;;
37559;SDS011;23398;50.928;7.084;2023-06-22T12:30:44;7.82;;;7.13;;
37559;SDS011;23398;50.928;7.084;2023-06-22T12:33:10;9.20;;;8.40;;
37559;SDS011;23398;50.928;7.084;2023-06-22T12:35:35;8.52;;;7.82;;
37559;SDS011;23398;50.928;7.084;2023-06-22T12:38:01;8.20;;;7.50;;
37559;SDS011;23398;50.928;7.084;2023-06-22T12:40:28;8.43;;;7.63;;
37559;SDS011;23398;50.928;7.084;2023-06-22T12:42:54;8.52;;;7.82;;
37559;SDS011;23398;50.928;7.084;2023-06-22T12:45:20;8.23;;;7.43;;
37559;SDS011;23398;50.928;7.084;2023-06-22T12:47:46;8.60;;;7.80;;
37559;SDS011;23398;50.928;7.084;2023-06-22T12:50:12;9.07;;;8.27;;
37559;SDS011;23398;50.928;7.084;2023-06-22T12:52:39;8.20;;;7.40;;
37559;SDS011;23398;50.928;7.084;2023-06-22T12:55:06;8.10;;;7.40;;
37559;SDS011;23398;50.928;7.084;2023-06-22T12:57:32;8.45;;;7.65;;
37559;SDS011;23398;50.928;7.084;2023-06-22T12:59:57;8.35;;;7.65;;
37559;SDS011;23398;50.928;7.084;2023-06-22T13:02:25;8.85;;;8.05;;
37559;SDS011;23398;50.928;7.084;2023-06-22T13:04:51;8.90;;;8.00;;
37559;SDS011;23398;50.928;7.084;2023-06-22T13:07:16;8.15;;;7.35;;
37559;SDS011;23398;50.928;7.084;2023-06-22T13:09:42;8.55;;;7.72;;
37559;SDS011;23398;50.928;7.084;2023-06-22T13:12:08;8.93;;;7.72;;
37559;SDS011;23398;50.928;7.084;2023-06-22T13:14:33;8.52;;;7.70;;
37559;SDS011;23398;50.928;7.084;2023-06-22T13:16:59;8.48;;;7.78;;
37559;SDS011;23398;50.928;7.084;2023-06-22T13:19:24;8.73;;;7.93;;
37559;SDS011;23398;50.928;7.084;2023-06-22T13:21:53;8.85;;;8.15;;
37559;SDS011;23398;50.928;7.084;2023-06-22T13:24:19;9.02;;;8.23;;
37559;SDS011;23398;50.928;7.084;2023-06-22T13:26:44;9.13;;;8.27;;
37559;SDS011;23398;50.928;7.084;2023-06-22T13:29:10;8.80;;;8.10;;
37559;SDS011;23398;50.928;7.084;2023-06-22T13:31:36;8.80;;;8.00;;
37559;SDS011;23398;50.928;7.084;2023-06-22T13:34:02;9.30;;;8.43;;
37559;SDS011;23398;50.928;7.084;2023-06-22T13:36:28;8.70;;;7.95;;
37559;SDS011;23398;50.928;7.084;2023-06-22T13:38:55;8.38;;;7.68;;
37559;SDS011;23398;50.928;7.084;2023-06-22T13:41:21;8.07;;;7.38;;
37559;SDS011;23398;50.928;7.084;2023-06-22T13:43:46;8.55;;;7.75;;
37559;SDS011;23398;50.928;7.084;2023-06-22T13:46:12;8.25;;;7.47;;
37559;SDS011;23398;50.928;7.084;2023-06-22T13:48:38;6.93;;;6.32;;
37559;SDS011;23398;50.928;7.084;2023-06-22T13:51:03;6.78;;;6.20;;
37559;SDS011;23398;50.928;7.084;2023-06-22T13:53:29;6.43;;;5.93;;
37559;SDS011;23398;50.928;7.084;2023-06-22T13:55:55;6.57;;;5.97;;
37559;SDS011;23398;50.928;7.084;2023-06-22T13:58:21;5.63;;;5.13;;
37559;SDS011;23398;50.928;7.084;2023-06-22T14:00:46;5.60;;;5.10;;
37559;SDS011;23398;50.928;7.084;2023-06-22T14:03:14;5.35;;;4.95;;
37559;SDS011;23398;50.928;7.084;2023-06-22T14:05:41;5.28;;;4.78;;
37559;SDS011;23398;50.928;7.084;2023-06-22T14:08:07;5.25;;;4.75;;
37559;SDS011;23398;50.928;7.084;2023-06-22T14:10:32;4.40;;;4.05;;
37559;SDS011;23398;50.928;7.084;2023-06-22T14:12:58;5.03;;;4.63;;
37559;SDS011;23398;50.928;7.084;2023-06-22T14:15:25;4.78;;;4.38;;
37559;SDS011;23398;50.928;7.084;2023-06-22T14:17:50;4.97;;;4.50;;
37559;SDS011;23398;50.928;7.084;2023-06-22T14:20:17;4.95;;;4.55;;
37559;SDS011;23398;50.928;7.084;2023-06-22T14:22:43;4.53;;;4.13;;
37559;SDS011;23398;50.928;7.084;2023-06-22T14:25:09;4.85;;;4.45;;
37559;SDS011;23398;50.928;7.084;2023-06-22T14:27:34;5.70;;;5.10;;
37559;SDS011;23398;50.928;7.084;2023-06-22T14:30:00;5.10;;;4.70;;
37559;SDS011;23398;50.928;7.084;2023-06-22T14:32:27;5.63;;;5.13;;
37559;SDS011;23398;50.928;7.084;2023-06-22T14:34:55;5.20;;;4.68;;
37559;SDS011;23398;50.928;7.084;2023-06-22T14:37:20;4.72;;;4.32;;
37559;SDS011;23398;50.928;7.084;2023-06-22T14:39:46;5.20;;;4.70;;
37559;SDS011;23398;50.928;7.084;2023-06-22T14:42:11;5.30;;;4.88;;
37559;SDS011;23398;50.928;7.084;2023-06-22T14:44:37;4.60;;;4.20;;
37559;SDS011;23398;50.928;7.084;2023-06-22T14:47:02;5.00;;;4.45;;
37559;SDS011;23398;50.928;7.084;2023-06-22T14:49:28;8.05;;;4.43;;
37559;SDS011;23398;50.928;7.084;2023-06-22T14:51:53;5.43;;;4.63;;
37559;SDS011;23398;50.928;7.084;2023-06-22T14:54:19;5.60;;;4.63;;